Time;durP1;ratioP1;P1;durP2;ratioP2;P2;SDS_P1;SDS_P2;PMS_P1;PMS_P2;Temp;Humidity;BMP_temperature;BMP_pressure;BME280_temperature;BME280_humidity;BME280_pressure;Samples;Min_cycle;Max_cycle;Signal;HPM_P1;HPM_P2
2020/12/08 00:02:11;;;;;;;17.38;11.90;;;0.60;98.00;;;;;;5007473;28;20076;-70
2020/12/08 00:04:40;;;;;;;19.45;12.23;;;0.60;98.00;;;;;;5016911;28;20017;-69
2020/12/08 00:07:10;;;;;;;19.10;12.80;;;0.60;98.00;;;;;;5015296;28;20057;-69
2020/12/08 00:09:37;;;;;;;19.98;12.93;;;0.60;98.00;;;;;;5013075;28;20026;-69
2020/12/08 00:12:03;;;;;;;19.00;12.07;;;0.50;98.00;;;;;;5015580;28;20022;-70
2020/12/08 00:14:28;;;;;;;24.42;13.32;;;0.60;98.00;;;;;;5009635;28;20021;-69
2020/12/08 00:16:54;;;;;;;19.17;12.10;;;0.60;98.00;;;;;;5017291;28;20330;-69
2020/12/08 00:19:20;;;;;;;20.42;12.80;;;0.60;98.00;;;;;;5021457;28;20038;-69
2020/12/08 00:21:46;;;;;;;18.83;11.63;;;0.50;98.00;;;;;;5021074;28;20064;-70
2020/12/08 00:24:15;;;;;;;22.00;12.93;;;0.50;98.00;;;;;;5017889;28;20056;-70
2020/12/08 00:26:41;;;;;;;17.80;11.68;;;0.50;98.00;;;;;;5017081;28;20022;-70
2020/12/08 00:29:08;;;;;;;20.20;12.63;;;0.40;98.00;;;;;;5017496;28;20026;-70
2020/12/08 00:31:35;;;;;;;19.80;13.02;;;0.40;98.00;;;;;;5015642;28;20346;-70
2020/12/08 00:34:01;;;;;;;21.02;12.73;;;0.40;98.00;;;;;;5020061;28;20030;-70
2020/12/08 00:36:27;;;;;;;19.75;12.90;;;0.40;98.00;;;;;;5024233;28;20025;-69
2020/12/08 00:38:54;;;;;;;19.23;12.90;;;0.40;98.00;;;;;;5021996;28;20026;-69
2020/12/08 00:41:21;;;;;;;25.17;12.88;;;0.50;98.00;;;;;;5022086;28;20571;-70
2020/12/08 00:43:50;;;;;;;19.77;13.20;;;0.50;98.00;;;;;;5002275;28;20111;-69
2020/12/08 00:46:18;;;;;;;17.90;12.18;;;0.50;98.00;;;;;;5026672;28;20030;-70
2020/12/08 00:48:45;;;;;;;21.83;13.43;;;0.50;98.00;;;;;;5017587;28;20045;-70
2020/12/08 00:51:11;;;;;;;21.13;13.13;;;0.40;98.00;;;;;;5025924;28;20018;-70
2020/12/08 00:53:37;;;;;;;20.98;13.18;;;0.40;98.00;;;;;;5022422;28;20026;-69
2020/12/08 00:56:11;;;;;;;17.15;12.07;;;0.40;98.00;;;;;;5024473;28;20044;-71
2020/12/08 00:58:37;;;;;;;22.20;13.70;;;0.40;98.00;;;;;;5012998;28;20037;-69
2020/12/08 01:01:07;;;;;;;22.85;14.23;;;0.40;98.00;;;;;;5018940;28;20359;-70
2020/12/08 01:03:34;;;;;;;23.77;13.30;;;0.30;98.00;;;;;;5017137;28;20470;-70
2020/12/08 01:06:01;;;;;;;21.65;13.27;;;0.20;98.00;;;;;;5016234;28;20403;-69
2020/12/08 01:08:28;;;;;;;21.58;13.70;;;0.10;98.00;;;;;;5020671;28;20027;-69
2020/12/08 01:10:56;;;;;;;19.98;12.93;;;0.10;98.00;;;;;;5005312;28;20022;-69
2020/12/08 01:13:22;;;;;;;22.05;14.30;;;0.10;98.00;;;;;;5015435;28;20133;-69
2020/12/08 01:15:48;;;;;;;22.42;14.07;;;0.00;98.00;;;;;;5022785;28;20487;-69
2020/12/08 01:18:14;;;;;;;22.52;14.30;;;0.00;98.00;;;;;;5025526;28;20026;-69
2020/12/08 01:20:40;;;;;;;22.92;14.35;;;0.00;98.00;;;;;;5022494;28;20104;-68
2020/12/08 01:23:07;;;;;;;23.73;15.05;;;0.00;98.00;;;;;;5019768;28;20479;-70
2020/12/08 01:25:33;;;;;;;26.52;16.65;;;0.00;98.00;;;;;;5025365;28;20366;-70
2020/12/08 01:28:00;;;;;;;22.30;14.65;;;-0.10;98.00;;;;;;5021593;28;20113;-70
2020/12/08 01:30:26;;;;;;;21.65;13.98;;;-0.20;98.00;;;;;;5020579;28;20079;-70
2020/12/08 01:32:51;;;;;;;26.15;15.63;;;-0.20;98.00;;;;;;5027430;28;20029;-69
2020/12/08 01:35:18;;;;;;;24.63;15.98;;;-0.30;98.00;;;;;;5018587;28;20026;-70
2020/12/08 01:37:45;;;;;;;32.35;15.68;;;-0.40;98.00;;;;;;5021825;28;20327;-70
2020/12/08 01:40:11;;;;;;;28.10;16.95;;;-0.40;98.00;;;;;;5020423;28;20373;-70
2020/12/08 01:42:36;;;;;;;28.80;16.75;;;-0.40;98.00;;;;;;5015054;28;20030;-69
2020/12/08 01:45:04;;;;;;;25.65;16.27;;;-0.40;98.00;;;;;;5024837;28;20017;-69
2020/12/08 01:47:30;;;;;;;25.27;15.80;;;-0.40;98.00;;;;;;5020459;28;20030;-70
2020/12/08 01:49:55;;;;;;;28.30;16.90;;;-0.40;98.00;;;;;;5015928;28;20033;-69
2020/12/08 01:52:21;;;;;;;30.25;18.48;;;-0.40;98.00;;;;;;5018534;28;20441;-70
2020/12/08 01:54:51;;;;;;;28.48;17.35;;;-0.40;98.00;;;;;;5022674;28;20029;-70
2020/12/08 01:57:17;;;;;;;27.60;16.38;;;-0.40;98.00;;;;;;5028369;28;20079;-69
2020/12/08 01:59:42;;;;;;;25.42;16.73;;;-0.30;98.00;;;;;;5016596;28;20315;-70
2020/12/08 02:02:08;;;;;;;30.75;16.55;;;-0.30;98.00;;;;;;5017320;28;20324;-69
2020/12/08 02:04:36;;;;;;;28.23;16.88;;;-0.30;98.00;;;;;;5021096;28;20022;-69
2020/12/08 02:07:02;;;;;;;25.90;16.98;;;-0.20;98.00;;;;;;5022139;28;20363;-69
2020/12/08 02:09:28;;;;;;;27.70;17.15;;;-0.10;98.00;;;;;;5018409;28;20026;-70
2020/12/08 02:11:54;;;;;;;27.58;16.52;;;-0.10;98.00;;;;;;5019611;28;20795;-70
2020/12/08 02:14:20;;;;;;;30.10;17.80;;;-0.10;98.00;;;;;;5022796;28;20100;-70
2020/12/08 02:16:45;;;;;;;28.92;16.95;;;-0.20;98.00;;;;;;5028495;28;20341;-69
2020/12/08 02:19:11;;;;;;;27.33;16.85;;;-0.20;98.00;;;;;;5009866;28;20048;-70
2020/12/08 02:21:37;;;;;;;33.20;17.98;;;-0.20;98.00;;;;;;5019297;28;20040;-69
2020/12/08 02:24:03;;;;;;;28.13;17.33;;;-0.20;98.00;;;;;;5016514;28;20025;-69
2020/12/08 02:26:28;;;;;;;30.77;17.65;;;-0.20;98.00;;;;;;5018839;28;20018;-70
2020/12/08 02:28:54;;;;;;;31.85;18.90;;;-0.10;98.00;;;;;;5021747;28;20030;-70
2020/12/08 02:31:21;;;;;;;30.55;17.83;;;-0.20;98.00;;;;;;5015160;28;20029;-70
2020/12/08 02:33:47;;;;;;;28.67;18.45;;;-0.20;98.00;;;;;;5019467;28;20437;-70
2020/12/08 02:36:13;;;;;;;31.70;17.85;;;-0.20;98.00;;;;;;5014427;28;20058;-70
2020/12/08 02:38:38;;;;;;;34.78;19.60;;;-0.20;98.00;;;;;;5014786;28;20326;-69
2020/12/08 02:41:04;;;;;;;31.35;18.58;;;-0.10;98.00;;;;;;5020124;28;20113;-70
2020/12/08 02:43:31;;;;;;;29.00;17.30;;;-0.10;98.00;;;;;;5016468;28;20034;-70
2020/12/08 02:45:58;;;;;;;29.20;17.73;;;-0.10;98.00;;;;;;5024118;28;20021;-70
2020/12/08 02:48:24;;;;;;;25.45;16.50;;;-0.10;98.00;;;;;;4999794;28;20052;-70
2020/12/08 02:50:49;;;;;;;23.63;16.05;;;-0.10;98.00;;;;;;5019702;28;20100;-70
2020/12/08 02:53:15;;;;;;;25.80;16.05;;;-0.20;98.00;;;;;;5023982;28;20057;-69
2020/12/08 02:55:45;;;;;;;31.70;18.25;;;-0.30;98.00;;;;;;5026156;28;20048;-70
2020/12/08 02:58:11;;;;;;;34.53;19.23;;;-0.30;98.00;;;;;;5031021;28;20033;-70
2020/12/08 03:00:36;;;;;;;29.20;18.15;;;-0.30;98.00;;;;;;5016170;28;20029;-69
2020/12/08 03:03:02;;;;;;;33.13;19.55;;;-0.30;98.00;;;;;;5021017;28;20024;-69
2020/12/08 03:05:28;;;;;;;31.73;18.83;;;-0.40;98.00;;;;;;5013654;28;20097;-69
2020/12/08 03:07:53;;;;;;;30.27;18.48;;;-0.60;98.00;;;;;;5029962;28;20033;-70
2020/12/08 03:10:19;;;;;;;33.13;20.25;;;-0.70;98.00;;;;;;5017377;28;20707;-70
2020/12/08 03:12:46;;;;;;;35.05;20.35;;;-0.70;98.00;;;;;;5026184;28;20030;-70
2020/12/08 03:15:11;;;;;;;36.72;21.13;;;-0.60;98.00;;;;;;5014963;28;20029;-69
2020/12/08 03:17:40;;;;;;;34.55;20.20;;;-0.50;98.00;;;;;;5026011;28;20087;-69
2020/12/08 03:20:06;;;;;;;34.80;20.67;;;-0.40;98.00;;;;;;5016256;28;20121;-70
2020/12/08 03:22:32;;;;;;;34.70;19.48;;;-0.40;98.00;;;;;;5028140;28;20033;-70
2020/12/08 03:24:57;;;;;;;32.60;19.40;;;-0.40;98.00;;;;;;5015986;28;20036;-69
2020/12/08 03:27:23;;;;;;;32.03;19.15;;;-0.50;98.00;;;;;;5022449;28;21566;-69
2020/12/08 03:29:49;;;;;;;32.97;18.70;;;-0.50;98.00;;;;;;5015454;28;20080;-69
2020/12/08 03:32:14;;;;;;;39.35;20.80;;;-0.40;98.00;;;;;;5028762;28;20028;-69
2020/12/08 03:34:40;;;;;;;36.25;19.17;;;-0.40;98.00;;;;;;5020260;28;20025;-69
2020/12/08 03:37:06;;;;;;;32.55;19.52;;;-0.40;98.00;;;;;;5021148;28;20030;-69
2020/12/08 03:39:31;;;;;;;33.63;20.25;;;-0.30;98.00;;;;;;5015273;28;20427;-69
2020/12/08 03:42:01;;;;;;;30.70;19.70;;;-0.40;98.00;;;;;;5014216;28;20067;-69
2020/12/08 03:44:28;;;;;;;36.35;19.88;;;-0.40;98.00;;;;;;5015327;28;20057;-69
2020/12/08 03:46:56;;;;;;;35.17;20.50;;;-0.50;98.00;;;;;;5023006;28;20033;-70
2020/12/08 03:49:26;;;;;;;33.10;20.17;;;-0.50;98.00;;;;;;5021297;28;20026;-70
2020/12/08 03:52:00;;;;;;;29.95;18.25;;;-0.50;98.00;;;;;;5019653;28;20354;-70
2020/12/08 03:54:26;;;;;;;36.83;20.85;;;-0.60;98.00;;;;;;5015468;28;20025;-69
2020/12/08 03:56:52;;;;;;;31.98;19.77;;;-0.60;98.00;;;;;;5025993;28;20014;-69
2020/12/08 03:59:17;;;;;;;33.50;20.25;;;-0.60;98.00;;;;;;5018329;28;20033;-69
2020/12/08 04:01:50;;;;;;;32.53;20.60;;;-0.60;98.00;;;;;;5017010;28;20509;-69
2020/12/08 04:04:19;;;;;;;30.75;19.20;;;-0.50;98.00;;;;;;5024082;28;20180;-69
2020/12/08 04:06:47;;;;;;;34.28;19.58;;;-0.50;98.00;;;;;;5023733;28;20478;-69
2020/12/08 04:09:15;;;;;;;36.47;19.27;;;-0.40;98.00;;;;;;5017972;28;20029;-68
2020/12/08 04:11:40;;;;;;;30.08;19.27;;;-0.40;98.00;;;;;;5031795;28;20028;-69
2020/12/08 04:14:06;;;;;;;37.60;20.98;;;-0.40;98.00;;;;;;5019917;28;20101;-68
2020/12/08 04:16:33;;;;;;;32.25;19.63;;;-0.20;98.00;;;;;;5029413;28;20083;-71
2020/12/08 04:19:01;;;;;;;35.58;20.15;;;-0.30;98.00;;;;;;5027926;28;20030;-70
2020/12/08 04:21:28;;;;;;;40.20;21.95;;;-0.30;98.00;;;;;;5022440;28;20441;-70
2020/12/08 04:23:59;;;;;;;30.33;18.23;;;-0.30;98.00;;;;;;5024481;28;20034;-70
2020/12/08 04:26:25;;;;;;;34.65;18.70;;;-0.20;98.00;;;;;;5018588;28;20025;-70
2020/12/08 04:28:51;;;;;;;36.13;19.52;;;-0.20;98.00;;;;;;5019409;28;20026;-70
2020/12/08 04:31:17;;;;;;;41.28;20.50;;;-0.30;98.00;;;;;;5022157;28;20423;-70
2020/12/08 04:33:46;;;;;;;31.60;18.80;;;-0.30;98.00;;;;;;5024106;28;20034;-69
2020/12/08 04:36:18;;;;;;;35.83;20.45;;;-0.20;98.00;;;;;;5032951;28;20038;-70
2020/12/08 04:38:45;;;;;;;30.95;18.60;;;-0.20;98.00;;;;;;5019430;28;20200;-69
2020/12/08 04:41:11;;;;;;;31.25;20.00;;;-0.30;98.00;;;;;;5018040;28;20033;-70
2020/12/08 04:43:40;;;;;;;108.40;60.67;;;-0.20;98.00;;;;;;5026209;28;20028;-69
2020/12/08 04:46:07;;;;;;;43.40;24.20;;;-0.30;98.00;;;;;;5018549;28;20072;-69
2020/12/08 04:48:36;;;;;;;44.38;26.35;;;-0.30;98.00;;;;;;5022069;28;20045;-69
2020/12/08 04:51:02;;;;;;;37.17;22.85;;;-0.40;98.00;;;;;;5025173;28;20021;-69
2020/12/08 04:53:28;;;;;;;36.85;21.35;;;-0.40;98.00;;;;;;5026315;28;20323;-69
2020/12/08 04:55:54;;;;;;;36.78;23.27;;;-0.50;98.00;;;;;;5020278;28;20030;-69
2020/12/08 04:58:19;;;;;;;36.13;22.48;;;-0.40;98.00;;;;;;5017684;28;20029;-70
2020/12/08 05:00:45;;;;;;;33.00;20.08;;;-0.40;98.00;;;;;;5017194;28;20113;-69
2020/12/08 05:03:11;;;;;;;35.92;20.38;;;-0.30;98.00;;;;;;5016648;28;20423;-69
2020/12/08 05:05:43;;;;;;;38.33;22.73;;;-0.30;98.00;;;;;;5016854;28;20026;-70
2020/12/08 05:08:13;;;;;;;32.65;20.20;;;-0.30;98.00;;;;;;5019510;28;20028;-70
2020/12/08 05:10:39;;;;;;;30.20;19.13;;;-0.30;98.00;;;;;;5021417;28;20335;-70
2020/12/08 05:13:18;;;;;;;34.88;20.85;;;-0.30;98.00;;;;;;5017088;28;20057;-69
2020/12/08 05:16:06;;;;;;;34.88;21.80;;;-0.30;98.00;;;;;;5030571;28;20025;-69
2020/12/08 05:18:36;;;;;;;34.88;21.10;;;-0.40;98.00;;;;;;5018393;28;20021;-69
2020/12/08 05:21:11;;;;;;;42.03;23.25;;;-0.40;98.00;;;;;;5024876;28;20438;-69
2020/12/08 05:23:46;;;;;;;36.58;22.35;;;-0.50;98.00;;;;;;5023137;28;20034;-69
2020/12/08 05:26:13;;;;;;;40.13;23.02;;;-0.40;98.00;;;;;;5033212;28;20025;-69
2020/12/08 05:28:40;;;;;;;37.92;22.35;;;-0.40;98.00;;;;;;5018554;28;20092;-70
2020/12/08 05:31:10;;;;;;;36.13;21.48;;;-0.40;98.00;;;;;;5016023;28;20129;-70
2020/12/08 05:33:38;;;;;;;38.50;22.08;;;-0.40;98.00;;;;;;5019414;28;20030;-69
2020/12/08 05:36:04;;;;;;;33.28;20.90;;;-0.40;98.00;;;;;;5020509;28;20026;-69
2020/12/08 05:38:38;;;;;;;37.90;21.60;;;-0.30;98.00;;;;;;5025070;28;20076;-69
2020/12/08 05:41:05;;;;;;;46.72;25.65;;;-0.30;98.00;;;;;;5015589;28;20038;-69
2020/12/08 05:43:39;;;;;;;40.67;24.60;;;-0.30;98.00;;;;;;5014575;28;20045;-70
2020/12/08 05:46:06;;;;;;;43.28;24.58;;;-0.30;98.00;;;;;;5020744;28;20100;-69
2020/12/08 05:48:32;;;;;;;41.25;23.75;;;-0.30;98.00;;;;;;5024920;28;20065;-69
2020/12/08 05:51:03;;;;;;;40.00;22.58;;;-0.30;98.00;;;;;;5017398;28;20053;-69
2020/12/08 05:53:29;;;;;;;38.97;21.75;;;-0.40;98.00;;;;;;5019005;28;20037;-70
2020/12/08 05:56:04;;;;;;;35.78;21.30;;;-0.40;98.00;;;;;;5020994;28;20052;-69
2020/12/08 05:58:30;;;;;;;31.38;20.13;;;-0.50;98.00;;;;;;5012681;28;20025;-69
2020/12/08 06:01:08;;;;;;;37.97;21.65;;;-0.50;98.00;;;;;;5005396;28;20026;-69
2020/12/08 06:03:36;;;;;;;34.10;20.48;;;-0.60;98.00;;;;;;5020201;28;20076;-69
2020/12/08 06:06:09;;;;;;;38.17;22.77;;;-0.70;98.00;;;;;;5016853;28;20030;-69
2020/12/08 06:08:45;;;;;;;38.78;22.48;;;-0.70;98.00;;;;;;5019770;28;20029;-69
2020/12/08 06:11:11;;;;;;;42.45;21.95;;;-0.70;98.00;;;;;;5013106;28;20029;-69
2020/12/08 06:13:46;;;;;;;36.92;22.25;;;-0.70;98.00;;;;;;5015568;28;20053;-70
2020/12/08 06:16:20;;;;;;;34.58;20.92;;;-0.90;98.00;;;;;;5016663;28;20072;-69
2020/12/08 06:18:47;;;;;;;33.47;20.15;;;-1.20;98.00;;;;;;5022137;28;20048;-69
2020/12/08 06:21:27;;;;;;;37.38;20.38;;;-1.40;98.00;;;;;;5024499;28;20117;-69
2020/12/08 06:23:56;;;;;;;36.85;20.17;;;-1.40;98.00;;;;;;5013847;28;20029;-69
2020/12/08 06:26:23;;;;;;;36.28;20.77;;;-1.50;98.00;;;;;;5022876;28;20043;-69
2020/12/08 06:28:50;;;;;;;49.47;24.77;;;-1.60;98.00;;;;;;5020038;28;20024;-69
2020/12/08 06:31:15;;;;;;;43.45;25.77;;;-1.70;98.00;;;;;;5021123;28;20478;-69
2020/12/08 06:33:52;;;;;;;44.70;26.35;;;-1.60;98.00;;;;;;5029687;28;20104;-69
2020/12/08 06:36:19;;;;;;;43.20;24.75;;;-1.60;98.00;;;;;;5014174;28;20029;-69
2020/12/08 06:38:59;;;;;;;40.53;22.38;;;-1.50;98.00;;;;;;5018594;28;20053;-70
2020/12/08 06:41:36;;;;;;;50.67;25.05;;;-1.60;98.00;;;;;;5014906;28;20029;-69
2020/12/08 06:44:04;;;;;;;40.47;22.60;;;-1.70;98.00;;;;;;5012399;28;20079;-69
2020/12/08 06:46:30;;;;;;;41.67;22.88;;;-2.00;98.00;;;;;;5009477;28;20029;-69
2020/12/08 06:49:04;;;;;;;40.63;22.60;;;-2.10;98.00;;;;;;5024955;28;20073;-70
2020/12/08 06:51:37;;;;;;;38.67;21.73;;;-2.20;98.00;;;;;;5012321;28;20068;-69
2020/12/08 06:54:14;;;;;;;35.92;21.20;;;-2.10;98.00;;;;;;5012972;28;20034;-69
2020/12/08 06:56:39;;;;;;;42.65;22.20;;;-2.10;98.00;;;;;;5022938;28;20025;-69
2020/12/08 06:59:08;;;;;;;44.85;23.23;;;-2.20;98.00;;;;;;5026355;28;20422;-69
2020/12/08 07:01:35;;;;;;;41.40;23.15;;;-2.20;98.00;;;;;;5014223;28;20056;-69
2020/12/08 07:04:00;;;;;;;37.38;21.60;;;-2.20;98.00;;;;;;5024851;28;20363;-68
2020/12/08 07:06:26;;;;;;;38.00;21.67;;;-2.30;98.00;;;;;;5022024;28;20072;-68
2020/12/08 07:08:53;;;;;;;51.50;22.80;;;-2.30;98.00;;;;;;5017068;28;20053;-68
2020/12/08 07:11:20;;;;;;;37.83;21.65;;;-2.30;98.00;;;;;;5026040;28;20029;-70
2020/12/08 07:14:00;;;;;;;35.40;21.05;;;-2.30;98.00;;;;;;5019632;28;20045;-71
2020/12/08 07:16:28;;;;;;;36.90;20.17;;;-2.30;98.00;;;;;;5007685;28;20021;-70
2020/12/08 07:18:55;;;;;;;37.92;21.35;;;-2.30;98.00;;;;;;5020240;28;20025;-71
2020/12/08 07:21:21;;;;;;;36.53;20.10;;;-2.30;98.00;;;;;;5019448;28;20235;-70
2020/12/08 07:23:50;;;;;;;33.30;19.17;;;-2.40;98.00;;;;;;5017914;28;20034;-69
2020/12/08 07:26:20;;;;;;;31.75;18.05;;;-2.50;98.00;;;;;;5026121;28;20153;-70
2020/12/08 07:28:46;;;;;;;28.75;17.85;;;-2.50;98.00;;;;;;5013236;28;20044;-69
2020/12/08 07:31:28;;;;;;;33.90;18.88;;;-2.40;98.00;;;;;;5018704;28;20022;-69
2020/12/08 07:33:55;;;;;;;32.40;18.15;;;-2.40;98.00;;;;;;5029509;28;20030;-69
2020/12/08 07:36:26;;;;;;;40.58;22.88;;;-2.60;98.00;;;;;;5021357;28;20318;-69
2020/12/08 07:38:56;;;;;;;38.50;20.13;;;-2.70;98.00;;;;;;5014330;28;20025;-69
2020/12/08 07:41:27;;;;;;;37.72;21.55;;;-2.70;98.00;;;;;;5028356;28;20113;-69
2020/12/08 07:43:53;;;;;;;39.58;23.02;;;-2.80;98.00;;;;;;5018437;28;20108;-69
2020/12/08 07:46:26;;;;;;;43.15;23.35;;;-2.80;98.00;;;;;;5022100;28;20018;-69
2020/12/08 07:49:09;;;;;;;40.00;23.60;;;-2.80;98.00;;;;;;5030807;28;20046;-69
2020/12/08 07:51:36;;;;;;;47.08;26.08;;;-2.70;98.00;;;;;;5020825;28;20022;-69
2020/12/08 07:54:07;;;;;;;39.92;22.55;;;-2.70;98.00;;;;;;5013101;28;20327;-69
2020/12/08 07:56:40;;;;;;;42.67;22.92;;;-2.60;98.00;;;;;;5012615;28;20450;-69
2020/12/08 07:59:05;;;;;;;37.05;21.05;;;-2.50;98.00;;;;;;5013431;28;20054;-69
2020/12/08 08:01:42;;;;;;;38.22;22.27;;;-2.30;98.00;;;;;;5011815;28;20747;-69
2020/12/08 08:04:10;;;;;;;41.08;22.85;;;-2.20;98.00;;;;;;5013133;28;20030;-69
2020/12/08 08:06:36;;;;;;;38.65;22.52;;;-2.10;98.00;;;;;;5014478;28;20025;-69
2020/12/08 08:09:06;;;;;;;39.70;22.77;;;-2.10;98.00;;;;;;5012436;28;20025;-69
2020/12/08 08:11:32;;;;;;;49.90;26.33;;;-1.90;98.00;;;;;;5013441;28;20200;-69
2020/12/08 08:13:58;;;;;;;52.85;31.00;;;-1.80;98.00;;;;;;5015378;28;20049;-70
2020/12/08 08:16:24;;;;;;;50.17;25.30;;;-1.70;98.00;;;;;;5015566;28;20105;-69
2020/12/08 08:18:49;;;;;;;40.85;23.88;;;-1.70;98.00;;;;;;5013224;28;20037;-69
2020/12/08 08:21:15;;;;;;;36.95;20.50;;;-1.60;98.00;;;;;;5013800;28;20087;-70
2020/12/08 08:23:41;;;;;;;44.42;25.92;;;-1.60;98.00;;;;;;5031827;28;20030;-69
2020/12/08 08:26:08;;;;;;;74.57;48.33;;;-1.30;98.00;;;;;;5019500;28;20034;-69
2020/12/08 08:28:34;;;;;;;57.53;34.90;;;-1.00;98.00;;;;;;5032985;28;20480;-69
2020/12/08 08:31:00;;;;;;;46.92;27.92;;;-0.40;98.00;;;;;;5018168;28;20133;-69
2020/12/08 08:33:26;;;;;;;51.50;29.55;;;0.60;98.00;;;;;;5029471;28;20043;-69
2020/12/08 08:35:52;;;;;;;42.80;26.13;;;1.40;98.00;;;;;;5021914;28;20041;-70
2020/12/08 08:38:18;;;;;;;29.13;17.95;;;2.30;98.00;;;;;;5027948;28;20048;-69
2020/12/08 08:40:45;;;;;;;27.63;16.80;;;2.50;98.00;;;;;;5020948;28;20035;-70
2020/12/08 08:43:11;;;;;;;26.83;17.38;;;2.30;98.00;;;;;;5009973;28;20026;-70
2020/12/08 08:45:36;;;;;;;25.50;15.68;;;2.10;98.00;;;;;;5016231;28;20041;-69
2020/12/08 08:48:02;;;;;;;36.85;20.42;;;2.20;98.00;;;;;;5024224;28;20136;-69
2020/12/08 08:50:28;;;;;;;25.40;15.93;;;2.80;97.30;;;;;;5035950;28;20018;-69
2020/12/08 08:52:53;;;;;;;21.65;14.10;;;3.60;95.40;;;;;;5015669;28;20033;-70
2020/12/08 08:55:19;;;;;;;24.38;14.57;;;5.10;92.80;;;;;;5022466;28;20044;-70
2020/12/08 08:57:45;;;;;;;24.38;13.70;;;6.80;87.20;;;;;;5032287;28;20087;-70
2020/12/08 09:00:11;;;;;;;18.08;11.50;;;8.10;79.60;;;;;;5019284;28;20040;-70
2020/12/08 09:02:39;;;;;;;19.52;11.10;;;8.90;76.40;;;;;;5019818;28;20030;-70
2020/12/08 09:05:06;;;;;;;17.75;10.23;;;8.30;74.10;;;;;;5026286;28;20323;-70
2020/12/08 09:07:31;;;;;;;14.35;9.43;;;7.30;76.00;;;;;;5019258;28;20097;-70
2020/12/08 09:10:01;;;;;;;19.00;11.43;;;7.80;77.30;;;;;;5017096;28;20101;-68
2020/12/08 09:12:27;;;;;;;17.05;10.32;;;9.00;74.80;;;;;;5015007;28;20026;-69
2020/12/08 09:14:58;;;;;;;16.08;10.07;;;9.20;71.40;;;;;;5017383;28;20441;-69
2020/12/08 09:17:24;;;;;;;22.17;13.23;;;8.50;72.90;;;;;;5026425;28;20101;-70
2020/12/08 09:19:50;;;;;;;18.42;12.05;;;8.30;73.20;;;;;;5032960;28;20037;-69
2020/12/08 09:22:20;;;;;;;17.65;11.55;;;8.10;74.00;;;;;;5015704;28;20030;-69
2020/12/08 09:24:46;;;;;;;23.83;14.38;;;8.60;74.30;;;;;;5011645;28;20030;-69
2020/12/08 09:27:14;;;;;;;26.65;15.10;;;9.50;72.20;;;;;;5025430;28;20039;-68
2020/12/08 09:29:40;;;;;;;24.60;14.48;;;10.20;70.10;;;;;;5021569;28;20022;-69
2020/12/08 09:32:05;;;;;;;23.63;14.38;;;10.20;69.10;;;;;;5014947;28;20113;-69
2020/12/08 09:34:31;;;;;;;17.33;11.57;;;9.60;70.30;;;;;;5031610;28;20105;-69
2020/12/08 09:36:57;;;;;;;19.58;12.60;;;9.50;70.90;;;;;;5024820;28;20025;-69
2020/12/08 09:39:23;;;;;;;17.95;11.13;;;9.80;70.70;;;;;;5024486;28;20599;-69
2020/12/08 09:41:49;;;;;;;23.15;13.07;;;9.50;70.50;;;;;;5027293;28;20419;-69
2020/12/08 09:44:15;;;;;;;19.27;13.00;;;8.90;71.10;;;;;;5032914;28;20033;-69
2020/12/08 09:46:41;;;;;;;19.17;12.77;;;8.40;73.40;;;;;;5014138;28;20032;-69
2020/12/08 09:49:08;;;;;;;19.23;11.32;;;8.20;73.10;;;;;;5025466;28;20132;-69
2020/12/08 09:51:34;;;;;;;25.83;14.25;;;7.60;74.30;;;;;;5021247;28;20025;-70
2020/12/08 09:54:06;;;;;;;25.80;14.57;;;6.70;76.20;;;;;;5003082;28;20038;-69
2020/12/08 09:56:32;;;;;;;23.00;15.02;;;6.30;78.30;;;;;;5029084;28;20037;-68
2020/12/08 09:58:59;;;;;;;23.02;14.23;;;6.20;79.30;;;;;;5027998;28;20076;-68
2020/12/08 10:01:29;;;;;;;23.58;13.23;;;6.60;79.10;;;;;;5016113;28;20381;-68
2020/12/08 10:03:55;;;;;;;21.88;13.80;;;6.80;78.40;;;;;;5032095;28;20021;-68
2020/12/08 10:06:21;;;;;;;23.98;15.25;;;7.50;76.90;;;;;;5019259;28;20398;-69
2020/12/08 10:08:54;;;;;;;23.48;15.43;;;8.00;74.30;;;;;;5021827;28;20071;-69
2020/12/08 10:11:21;;;;;;;24.38;15.38;;;8.10;74.30;;;;;;5023351;28;20030;-70
2020/12/08 10:13:47;;;;;;;23.95;15.02;;;8.00;74.10;;;;;;5030562;28;20057;-69
2020/12/08 10:16:21;;;;;;;26.13;15.10;;;8.30;73.80;;;;;;5029809;28;20076;-69
2020/12/08 10:18:48;;;;;;;21.98;13.05;;;8.10;73.70;;;;;;5021631;28;20033;-69
2020/12/08 10:21:17;;;;;;;23.02;13.25;;;7.60;75.10;;;;;;5035149;28;20033;-69
2020/12/08 10:23:43;;;;;;;20.38;13.90;;;7.60;76.30;;;;;;5015858;28;20105;-69
2020/12/08 10:26:10;;;;;;;21.88;13.82;;;8.20;74.60;;;;;;5015201;28;20125;-69
2020/12/08 10:28:36;;;;;;;23.10;14.13;;;7.90;74.00;;;;;;5030331;28;20060;-69
2020/12/08 10:31:02;;;;;;;25.60;15.02;;;7.30;75.20;;;;;;5023016;28;20414;-69
2020/12/08 10:33:27;;;;;;;20.67;12.32;;;7.10;75.90;;;;;;5022289;28;20069;-69
2020/12/08 10:35:53;;;;;;;20.52;12.75;;;7.10;76.80;;;;;;5017645;28;20037;-70
2020/12/08 10:38:19;;;;;;;25.10;15.23;;;7.40;75.90;;;;;;5032161;28;20026;-70
2020/12/08 10:40:44;;;;;;;21.55;14.07;;;7.20;75.90;;;;;;5021852;28;20037;-69
2020/12/08 10:43:10;;;;;;;25.25;14.68;;;6.70;77.90;;;;;;5029874;28;20105;-70
2020/12/08 10:45:35;;;;;;;21.83;13.90;;;6.80;78.50;;;;;;5020170;28;20367;-69
2020/12/08 10:48:01;;;;;;;30.13;14.18;;;6.70;78.20;;;;;;5017341;28;20121;-69
2020/12/08 10:50:27;;;;;;;24.65;14.95;;;6.50;78.90;;;;;;5018137;28;20112;-68
2020/12/08 10:52:55;;;;;;;23.25;14.60;;;6.80;79.00;;;;;;5015790;28;20101;-69
2020/12/08 10:55:22;;;;;;;25.20;15.18;;;6.50;78.30;;;;;;5008601;28;20036;-70
2020/12/08 10:57:47;;;;;;;20.75;13.45;;;5.90;79.30;;;;;;5017859;28;20481;-70
2020/12/08 11:00:15;;;;;;;28.55;14.35;;;5.30;81.80;;;;;;5031350;28;20033;-69
2020/12/08 11:02:41;;;;;;;27.88;13.88;;;5.00;83.40;;;;;;5005299;28;20422;-70
2020/12/08 11:05:07;;;;;;;23.83;15.05;;;5.10;84.00;;;;;;5025558;28;20079;-69
2020/12/08 11:07:33;;;;;;;24.05;14.25;;;5.40;83.20;;;;;;5016014;28;20034;-69
2020/12/08 11:09:59;;;;;;;24.65;16.08;;;5.60;83.00;;;;;;5027338;28;20029;-70
2020/12/08 11:12:24;;;;;;;23.58;15.23;;;5.90;82.20;;;;;;5031312;28;20018;-69
2020/12/08 11:14:50;;;;;;;24.77;14.45;;;5.80;81.80;;;;;;5016404;28;20108;-69
2020/12/08 11:17:17;;;;;;;21.80;14.27;;;6.00;82.10;;;;;;5018827;28;20034;-70
2020/12/08 11:19:43;;;;;;;19.25;12.38;;;6.50;81.40;;;;;;5014979;28;20414;-69
2020/12/08 11:22:10;;;;;;;19.15;13.15;;;7.00;80.00;;;;;;5015387;28;20105;-70
2020/12/08 11:24:40;;;;;;;20.05;12.68;;;7.20;79.10;;;;;;5014485;28;20426;-69
2020/12/08 11:27:15;;;;;;;21.80;14.40;;;7.30;78.20;;;;;;5017556;28;20358;-69
2020/12/08 11:29:45;;;;;;;20.88;13.38;;;7.40;77.00;;;;;;5023154;28;20113;-69
2020/12/08 11:32:14;;;;;;;22.55;13.90;;;7.30;77.70;;;;;;5016041;28;20037;-69
2020/12/08 11:34:39;;;;;;;21.05;13.50;;;6.90;78.20;;;;;;5019622;28;20022;-69
2020/12/08 11:37:06;;;;;;;20.20;12.77;;;6.70;78.20;;;;;;5025227;28;20022;-70
2020/12/08 11:39:32;;;;;;;21.50;13.55;;;6.30;78.70;;;;;;5028146;28;20092;-69
2020/12/08 11:41:57;;;;;;;21.95;13.80;;;6.60;78.70;;;;;;5017765;28;20072;-69
2020/12/08 11:44:26;;;;;;;26.60;15.30;;;6.30;79.00;;;;;;5030489;28;20026;-70
2020/12/08 11:46:52;;;;;;;27.48;17.08;;;6.10;80.60;;;;;;5014186;28;20034;-69
2020/12/08 11:49:19;;;;;;;35.65;17.95;;;6.00;80.70;;;;;;5024279;28;20045;-69
2020/12/08 11:51:45;;;;;;;29.23;18.98;;;5.80;81.70;;;;;;5020913;28;20474;-69
2020/12/08 11:54:11;;;;;;;26.15;17.67;;;6.00;81.10;;;;;;5016142;28;20041;-69
2020/12/08 11:56:37;;;;;;;27.35;18.08;;;6.00;80.80;;;;;;5024900;28;20430;-69
2020/12/08 11:59:03;;;;;;;31.30;20.55;;;5.50;81.40;;;;;;5031042;28;20030;-69
2020/12/08 12:01:29;;;;;;;34.70;18.17;;;5.00;83.00;;;;;;5020818;28;20422;-69
2020/12/08 12:03:54;;;;;;;30.70;19.02;;;5.00;83.90;;;;;;5019692;28;20072;-70
2020/12/08 12:06:20;;;;;;;30.75;19.75;;;5.20;83.40;;;;;;5030978;28;20061;-69
2020/12/08 12:08:46;;;;;;;33.95;19.27;;;5.30;83.70;;;;;;5021037;28;20025;-71
2020/12/08 12:11:11;;;;;;;27.80;18.23;;;5.30;83.50;;;;;;5023125;28;20060;-69
2020/12/08 12:13:37;;;;;;;28.50;18.23;;;5.10;83.70;;;;;;5026511;28;20107;-68
2020/12/08 12:16:03;;;;;;;29.27;17.50;;;5.00;84.70;;;;;;5012365;28;20021;-69
2020/12/08 12:18:28;;;;;;;29.30;17.88;;;5.00;84.40;;;;;;5006888;28;20421;-69
2020/12/08 12:20:57;;;;;;;25.15;17.02;;;4.90;84.50;;;;;;5013988;28;20432;-69
2020/12/08 12:23:22;;;;;;;28.38;17.85;;;4.80;84.90;;;;;;5021325;28;20041;-69
2020/12/08 12:25:48;;;;;;;27.45;17.98;;;4.50;85.60;;;;;;5032837;28;20034;-70
2020/12/08 12:28:14;;;;;;;27.83;18.33;;;4.10;86.70;;;;;;5017362;28;20020;-69
2020/12/08 12:30:42;;;;;;;31.42;18.50;;;3.50;88.20;;;;;;5017170;28;20057;-68
2020/12/08 12:33:08;;;;;;;27.00;17.23;;;3.20;90.50;;;;;;5026922;28;20036;-68